sensor_id;sensor_type;location;lat;lon;timestamp;P1;durP1;ratioP1;P2;durP2;ratioP2
20623;SDS011;10471;42.736;23.346;2024-02-16T00:00:01;45.30;;;22.77;;
20623;SDS011;10471;42.736;23.346;2024-02-16T00:02:28;47.03;;;23.87;;
20623;SDS011;10471;42.736;23.346;2024-02-16T00:04:53;49.23;;;23.80;;
20623;SDS011;10471;42.736;23.346;2024-02-16T00:07:19;37.23;;;20.20;;
20623;SDS011;10471;42.736;23.346;2024-02-16T00:09:44;34.77;;;17.60;;
20623;SDS011;10471;42.736;23.346;2024-02-16T00:12:09;36.77;;;19.00;;
20623;SDS011;10471;42.736;23.346;2024-02-16T00:14:36;44.37;;;20.70;;
20623;SDS011;10471;42.736;23.346;2024-02-16T00:17:01;42.20;;;20.90;;
20623;SDS011;10471;42.736;23.346;2024-02-16T00:19:27;51.67;;;24.67;;
20623;SDS011;10471;42.736;23.346;2024-02-16T00:21:52;55.43;;;25.17;;
20623;SDS011;10471;42.736;23.346;2024-02-16T00:24:18;56.50;;;24.70;;
20623;SDS011;10471;42.736;23.346;2024-02-16T00:26:43;45.63;;;21.70;;
20623;SDS011;10471;42.736;23.346;2024-02-16T00:29:10;35.70;;;18.17;;
20623;SDS011;10471;42.736;23.346;2024-02-16T00:31:36;41.90;;;19.90;;
20623;SDS011;10471;42.736;23.346;2024-02-16T00:34:01;38.63;;;19.03;;
20623;SDS011;10471;42.736;23.346;2024-02-16T00:36:27;37.30;;;18.20;;
20623;SDS011;10471;42.736;23.346;2024-02-16T00:38:53;33.60;;;19.20;;
20623;SDS011;10471;42.736;23.346;2024-02-16T00:41:21;34.30;;;18.03;;
20623;SDS011;10471;42.736;23.346;2024-02-16T00:43:47;35.63;;;19.00;;
20623;SDS011;10471;42.736;23.346;2024-02-16T00:46:13;36.93;;;18.73;;
20623;SDS011;10471;42.736;23.346;2024-02-16T00:48:38;38.37;;;20.77;;
20623;SDS011;10471;42.736;23.346;2024-02-16T00:51:04;37.93;;;21.13;;
20623;SDS011;10471;42.736;23.346;2024-02-16T00:53:29;41.43;;;20.50;;
20623;SDS011;10471;42.736;23.346;2024-02-16T00:55:55;41.53;;;20.43;;
20623;SDS011;10471;42.736;23.346;2024-02-16T00:58:20;36.87;;;19.17;;
20623;SDS011;10471;42.736;23.346;2024-02-16T01:00:46;34.37;;;18.30;;
20623;SDS011;10471;42.736;23.346;2024-02-16T01:03:11;32.23;;;17.83;;
20623;SDS011;10471;42.736;23.346;2024-02-16T01:05:40;37.60;;;19.33;;
20623;SDS011;10471;42.736;23.346;2024-02-16T01:08:06;33.83;;;17.90;;
20623;SDS011;10471;42.736;23.346;2024-02-16T01:10:31;37.80;;;18.40;;
20623;SDS011;10471;42.736;23.346;2024-02-16T01:12:57;36.77;;;18.80;;
20623;SDS011;10471;42.736;23.346;2024-02-16T01:15:23;43.33;;;21.33;;
20623;SDS011;10471;42.736;23.346;2024-02-16T01:17:48;36.40;;;20.33;;
20623;SDS011;10471;42.736;23.346;2024-02-16T01:20:15;41.07;;;21.10;;
20623;SDS011;10471;42.736;23.346;2024-02-16T01:22:41;37.77;;;18.87;;
20623;SDS011;10471;42.736;23.346;2024-02-16T01:25:07;30.63;;;18.30;;
20623;SDS011;10471;42.736;23.346;2024-02-16T01:27:33;33.53;;;16.93;;
20623;SDS011;10471;42.736;23.346;2024-02-16T01:30:00;31.17;;;16.93;;
20623;SDS011;10471;42.736;23.346;2024-02-16T01:32:26;31.77;;;17.67;;
20623;SDS011;10471;42.736;23.346;2024-02-16T01:34:51;31.57;;;17.67;;
20623;SDS011;10471;42.736;23.346;2024-02-16T01:37:17;29.90;;;16.77;;
20623;SDS011;10471;42.736;23.346;2024-02-16T01:39:42;29.93;;;17.77;;
20623;SDS011;10471;42.736;23.346;2024-02-16T01:42:07;32.97;;;16.47;;
20623;SDS011;10471;42.736;23.346;2024-02-16T01:44:33;29.50;;;16.20;;
20623;SDS011;10471;42.736;23.346;2024-02-16T01:46:58;31.60;;;17.13;;
20623;SDS011;10471;42.736;23.346;2024-02-16T01:49:23;31.27;;;17.27;;
20623;SDS011;10471;42.736;23.346;2024-02-16T01:51:49;30.47;;;16.53;;
20623;SDS011;10471;42.736;23.346;2024-02-16T01:54:15;29.13;;;15.50;;
20623;SDS011;10471;42.736;23.346;2024-02-16T01:56:42;30.00;;;16.17;;
20623;SDS011;10471;42.736;23.346;2024-02-16T01:59:09;27.67;;;14.50;;
20623;SDS011;10471;42.736;23.346;2024-02-16T02:01:34;28.30;;;15.63;;
20623;SDS011;10471;42.736;23.346;2024-02-16T02:04:00;31.37;;;16.30;;
20623;SDS011;10471;42.736;23.346;2024-02-16T02:06:26;40.37;;;18.03;;
20623;SDS011;10471;42.736;23.346;2024-02-16T02:08:52;43.77;;;20.97;;
20623;SDS011;10471;42.736;23.346;2024-02-16T02:11:17;39.03;;;20.27;;
20623;SDS011;10471;42.736;23.346;2024-02-16T02:13:43;41.77;;;20.23;;
20623;SDS011;10471;42.736;23.346;2024-02-16T02:16:08;38.40;;;19.87;;
20623;SDS011;10471;42.736;23.346;2024-02-16T02:18:35;33.60;;;18.17;;
20623;SDS011;10471;42.736;23.346;2024-02-16T02:21:01;33.93;;;17.73;;
20623;SDS011;10471;42.736;23.346;2024-02-16T02:23:26;27.47;;;15.33;;
20623;SDS011;10471;42.736;23.346;2024-02-16T02:25:52;31.47;;;16.73;;
20623;SDS011;10471;42.736;23.346;2024-02-16T02:28:18;33.90;;;16.93;;
20623;SDS011;10471;42.736;23.346;2024-02-16T02:30:44;34.83;;;16.70;;
20623;SDS011;10471;42.736;23.346;2024-02-16T02:33:10;28.73;;;17.20;;
20623;SDS011;10471;42.736;23.346;2024-02-16T02:35:37;29.70;;;17.13;;
20623;SDS011;10471;42.736;23.346;2024-02-16T02:38:03;32.33;;;16.87;;
20623;SDS011;10471;42.736;23.346;2024-02-16T02:40:29;33.47;;;17.87;;
20623;SDS011;10471;42.736;23.346;2024-02-16T02:42:55;41.80;;;23.10;;
20623;SDS011;10471;42.736;23.346;2024-02-16T02:45:20;45.80;;;24.67;;
20623;SDS011;10471;42.736;23.346;2024-02-16T02:47:46;46.67;;;25.03;;
20623;SDS011;10471;42.736;23.346;2024-02-16T02:50:11;41.70;;;22.00;;
20623;SDS011;10471;42.736;23.346;2024-02-16T02:52:37;41.90;;;22.23;;
20623;SDS011;10471;42.736;23.346;2024-02-16T02:55:02;37.13;;;19.47;;
20623;SDS011;10471;42.736;23.346;2024-02-16T02:57:28;31.20;;;17.37;;
20623;SDS011;10471;42.736;23.346;2024-02-16T02:59:57;33.83;;;18.17;;
20623;SDS011;10471;42.736;23.346;2024-02-16T03:02:28;33.23;;;19.07;;
20623;SDS011;10471;42.736;23.346;2024-02-16T03:04:53;31.10;;;17.50;;
20623;SDS011;10471;42.736;23.346;2024-02-16T03:07:18;32.53;;;17.30;;
20623;SDS011;10471;42.736;23.346;2024-02-16T03:09:44;39.03;;;19.77;;
20623;SDS011;10471;42.736;23.346;2024-02-16T03:12:09;41.67;;;20.47;;
20623;SDS011;10471;42.736;23.346;2024-02-16T03:14:34;43.97;;;20.87;;
20623;SDS011;10471;42.736;23.346;2024-02-16T03:17:00;39.33;;;21.20;;
20623;SDS011;10471;42.736;23.346;2024-02-16T03:19:25;29.70;;;17.27;;
20623;SDS011;10471;42.736;23.346;2024-02-16T03:21:51;30.67;;;17.03;;
20623;SDS011;10471;42.736;23.346;2024-02-16T03:24:17;32.93;;;17.00;;
20623;SDS011;10471;42.736;23.346;2024-02-16T03:26:42;31.60;;;16.57;;
20623;SDS011;10471;42.736;23.346;2024-02-16T03:29:07;34.53;;;16.00;;
20623;SDS011;10471;42.736;23.346;2024-02-16T03:31:33;36.07;;;17.03;;
20623;SDS011;10471;42.736;23.346;2024-02-16T03:33:58;31.27;;;16.47;;
20623;SDS011;10471;42.736;23.346;2024-02-16T03:36:24;32.63;;;16.23;;
20623;SDS011;10471;42.736;23.346;2024-02-16T03:38:49;31.60;;;17.47;;
20623;SDS011;10471;42.736;23.346;2024-02-16T03:41:19;33.53;;;16.30;;
20623;SDS011;10471;42.736;23.346;2024-02-16T03:43:45;33.97;;;16.67;;
20623;SDS011;10471;42.736;23.346;2024-02-16T03:46:11;34.53;;;16.87;;
20623;SDS011;10471;42.736;23.346;2024-02-16T03:48:36;31.73;;;17.03;;
20623;SDS011;10471;42.736;23.346;2024-02-16T03:51:02;33.03;;;16.77;;
20623;SDS011;10471;42.736;23.346;2024-02-16T03:53:30;36.67;;;17.47;;
20623;SDS011;10471;42.736;23.346;2024-02-16T03:55:56;35.67;;;17.00;;
20623;SDS011;10471;42.736;23.346;2024-02-16T03:58:21;31.57;;;17.87;;
20623;SDS011;10471;42.736;23.346;2024-02-16T04:00:47;30.27;;;16.53;;
20623;SDS011;10471;42.736;23.346;2024-02-16T04:03:18;44.50;;;21.67;;
20623;SDS011;10471;42.736;23.346;2024-02-16T04:05:44;38.97;;;19.13;;
20623;SDS011;10471;42.736;23.346;2024-02-16T04:08:09;40.30;;;21.87;;
20623;SDS011;10471;42.736;23.346;2024-02-16T04:10:34;38.80;;;19.77;;
20623;SDS011;10471;42.736;23.346;2024-02-16T04:13:00;43.07;;;22.20;;
20623;SDS011;10471;42.736;23.346;2024-02-16T04:15:26;35.97;;;17.67;;
20623;SDS011;10471;42.736;23.346;2024-02-16T04:17:52;30.23;;;16.40;;
20623;SDS011;10471;42.736;23.346;2024-02-16T04:20:18;32.67;;;16.83;;
20623;SDS011;10471;42.736;23.346;2024-02-16T04:22:43;30.00;;;15.33;;
20623;SDS011;10471;42.736;23.346;2024-02-16T04:25:09;34.20;;;17.80;;
20623;SDS011;10471;42.736;23.346;2024-02-16T04:27:35;37.57;;;19.20;;
20623;SDS011;10471;42.736;23.346;2024-02-16T04:30:01;35.10;;;18.00;;
20623;SDS011;10471;42.736;23.346;2024-02-16T04:32:27;35.17;;;17.50;;
20623;SDS011;10471;42.736;23.346;2024-02-16T04:34:52;41.83;;;24.20;;
20623;SDS011;10471;42.736;23.346;2024-02-16T04:37:18;39.83;;;22.00;;
20623;SDS011;10471;42.736;23.346;2024-02-16T04:39:44;38.60;;;18.97;;
20623;SDS011;10471;42.736;23.346;2024-02-16T04:42:10;43.80;;;23.23;;
20623;SDS011;10471;42.736;23.346;2024-02-16T04:44:36;41.70;;;21.93;;
20623;SDS011;10471;42.736;23.346;2024-02-16T04:47:05;42.93;;;21.67;;
20623;SDS011;10471;42.736;23.346;2024-02-16T04:49:31;43.70;;;20.90;;
20623;SDS011;10471;42.736;23.346;2024-02-16T04:51:56;40.10;;;20.97;;
20623;SDS011;10471;42.736;23.346;2024-02-16T04:54:22;46.40;;;22.77;;
20623;SDS011;10471;42.736;23.346;2024-02-16T04:56:48;46.43;;;21.27;;
20623;SDS011;10471;42.736;23.346;2024-02-16T04:59:17;43.27;;;23.23;;
20623;SDS011;10471;42.736;23.346;2024-02-16T05:01:44;62.80;;;27.37;;
20623;SDS011;10471;42.736;23.346;2024-02-16T05:04:10;67.17;;;30.13;;
20623;SDS011;10471;42.736;23.346;2024-02-16T05:06:38;60.37;;;29.07;;
20623;SDS011;10471;42.736;23.346;2024-02-16T05:09:05;59.83;;;27.93;;
20623;SDS011;10471;42.736;23.346;2024-02-16T05:11:31;49.90;;;24.33;;
20623;SDS011;10471;42.736;23.346;2024-02-16T05:13:57;44.67;;;24.33;;
20623;SDS011;10471;42.736;23.346;2024-02-16T05:16:23;48.13;;;25.47;;
20623;SDS011;10471;42.736;23.346;2024-02-16T05:18:48;64.77;;;31.77;;
20623;SDS011;10471;42.736;23.346;2024-02-16T05:21:14;50.30;;;26.00;;
20623;SDS011;10471;42.736;23.346;2024-02-16T05:23:39;45.37;;;23.60;;
20623;SDS011;10471;42.736;23.346;2024-02-16T05:26:05;49.40;;;24.50;;
20623;SDS011;10471;42.736;23.346;2024-02-16T05:28:30;52.10;;;27.13;;
20623;SDS011;10471;42.736;23.346;2024-02-16T05:30:55;65.00;;;31.60;;
20623;SDS011;10471;42.736;23.346;2024-02-16T05:33:22;75.93;;;37.70;;
20623;SDS011;10471;42.736;23.346;2024-02-16T05:35:48;61.37;;;30.77;;
20623;SDS011;10471;42.736;23.346;2024-02-16T05:38:19;66.77;;;31.73;;
20623;SDS011;10471;42.736;23.346;2024-02-16T05:41:00;60.10;;;33.40;;
20623;SDS011;10471;42.736;23.346;2024-02-16T05:43:25;62.67;;;34.07;;
20623;SDS011;10471;42.736;23.346;2024-02-16T05:45:51;68.03;;;35.07;;
20623;SDS011;10471;42.736;23.346;2024-02-16T05:48:16;63.03;;;35.83;;
20623;SDS011;10471;42.736;23.346;2024-02-16T05:50:42;60.13;;;33.23;;
20623;SDS011;10471;42.736;23.346;2024-02-16T05:53:09;61.73;;;33.87;;
20623;SDS011;10471;42.736;23.346;2024-02-16T05:55:35;74.60;;;37.00;;
20623;SDS011;10471;42.736;23.346;2024-02-16T05:58:01;156.43;;;65.37;;
20623;SDS011;10471;42.736;23.346;2024-02-16T06:00:26;287.00;;;110.73;;
20623;SDS011;10471;42.736;23.346;2024-02-16T06:02:52;144.80;;;64.03;;
20623;SDS011;10471;42.736;23.346;2024-02-16T06:05:18;159.53;;;67.03;;
20623;SDS011;10471;42.736;23.346;2024-02-16T06:07:45;207.30;;;83.63;;
20623;SDS011;10471;42.736;23.346;2024-02-16T06:10:10;148.30;;;62.60;;
20623;SDS011;10471;42.736;23.346;2024-02-16T06:12:37;141.53;;;61.30;;
20623;SDS011;10471;42.736;23.346;2024-02-16T06:15:03;131.70;;;55.80;;
20623;SDS011;10471;42.736;23.346;2024-02-16T06:17:29;108.70;;;52.93;;
20623;SDS011;10471;42.736;23.346;2024-02-16T06:19:55;118.13;;;53.57;;
20623;SDS011;10471;42.736;23.346;2024-02-16T06:22:20;107.97;;;50.27;;
20623;SDS011;10471;42.736;23.346;2024-02-16T06:24:46;103.33;;;48.43;;
20623;SDS011;10471;42.736;23.346;2024-02-16T06:27:11;92.57;;;44.57;;
20623;SDS011;10471;42.736;23.346;2024-02-16T06:29:36;105.27;;;50.33;;
20623;SDS011;10471;42.736;23.346;2024-02-16T06:32:02;103.03;;;50.30;;
20623;SDS011;10471;42.736;23.346;2024-02-16T06:34:28;84.00;;;44.33;;
20623;SDS011;10471;42.736;23.346;2024-02-16T06:36:53;82.23;;;42.00;;
20623;SDS011;10471;42.736;23.346;2024-02-16T06:39:18;74.23;;;38.57;;
20623;SDS011;10471;42.736;23.346;2024-02-16T06:41:45;84.97;;;43.37;;
20623;SDS011;10471;42.736;23.346;2024-02-16T06:44:11;81.03;;;42.53;;
20623;SDS011;10471;42.736;23.346;2024-02-16T06:46:37;63.70;;;36.13;;
20623;SDS011;10471;42.736;23.346;2024-02-16T06:49:03;70.17;;;38.17;;
20623;SDS011;10471;42.736;23.346;2024-02-16T06:51:28;65.77;;;36.07;;
20623;SDS011;10471;42.736;23.346;2024-02-16T06:53:54;67.17;;;36.07;;
20623;SDS011;10471;42.736;23.346;2024-02-16T06:56:20;67.67;;;37.17;;
20623;SDS011;10471;42.736;23.346;2024-02-16T06:58:46;62.23;;;37.23;;
20623;SDS011;10471;42.736;23.346;2024-02-16T07:01:14;63.60;;;37.17;;
20623;SDS011;10471;42.736;23.346;2024-02-16T07:03:40;69.80;;;37.33;;
20623;SDS011;10471;42.736;23.346;2024-02-16T07:06:06;65.93;;;36.50;;
20623;SDS011;10471;42.736;23.346;2024-02-16T07:08:38;70.57;;;35.67;;
20623;SDS011;10471;42.736;23.346;2024-02-16T07:11:06;65.20;;;35.33;;
20623;SDS011;10471;42.736;23.346;2024-02-16T07:13:34;66.13;;;34.27;;
20623;SDS011;10471;42.736;23.346;2024-02-16T07:16:00;64.10;;;33.90;;
20623;SDS011;10471;42.736;23.346;2024-02-16T07:18:26;67.03;;;36.73;;
20623;SDS011;10471;42.736;23.346;2024-02-16T07:20:51;67.57;;;36.40;;
20623;SDS011;10471;42.736;23.346;2024-02-16T07:23:17;69.30;;;36.00;;
20623;SDS011;10471;42.736;23.346;2024-02-16T07:25:42;61.83;;;33.20;;
20623;SDS011;10471;42.736;23.346;2024-02-16T07:28:08;63.83;;;34.00;;
20623;SDS011;10471;42.736;23.346;2024-02-16T07:30:34;58.97;;;32.33;;
20623;SDS011;10471;42.736;23.346;2024-02-16T07:33:03;57.53;;;32.20;;
20623;SDS011;10471;42.736;23.346;2024-02-16T07:35:34;54.57;;;29.23;;
20623;SDS011;10471;42.736;23.346;2024-02-16T07:38:00;53.87;;;30.17;;
20623;SDS011;10471;42.736;23.346;2024-02-16T07:40:27;57.40;;;30.60;;
20623;SDS011;10471;42.736;23.346;2024-02-16T07:42:52;49.63;;;29.40;;
20623;SDS011;10471;42.736;23.346;2024-02-16T07:45:18;57.30;;;30.60;;
20623;SDS011;10471;42.736;23.346;2024-02-16T07:47:43;56.90;;;28.27;;
20623;SDS011;10471;42.736;23.346;2024-02-16T07:50:09;48.37;;;28.27;;
20623;SDS011;10471;42.736;23.346;2024-02-16T07:52:34;48.27;;;27.50;;
20623;SDS011;10471;42.736;23.346;2024-02-16T07:55:00;49.87;;;27.80;;
20623;SDS011;10471;42.736;23.346;2024-02-16T07:57:26;53.47;;;29.13;;
20623;SDS011;10471;42.736;23.346;2024-02-16T07:59:51;48.73;;;24.87;;
20623;SDS011;10471;42.736;23.346;2024-02-16T08:02:17;47.10;;;26.67;;
20623;SDS011;10471;42.736;23.346;2024-02-16T08:04:43;46.80;;;27.37;;
20623;SDS011;10471;42.736;23.346;2024-02-16T08:07:12;47.43;;;26.83;;
20623;SDS011;10471;42.736;23.346;2024-02-16T08:09:38;47.37;;;26.70;;
20623;SDS011;10471;42.736;23.346;2024-02-16T08:12:04;48.50;;;26.67;;
20623;SDS011;10471;42.736;23.346;2024-02-16T08:14:31;36.53;;;21.03;;
20623;SDS011;10471;42.736;23.346;2024-02-16T08:17:00;33.70;;;20.63;;
20623;SDS011;10471;42.736;23.346;2024-02-16T08:19:31;37.17;;;21.07;;
20623;SDS011;10471;42.736;23.346;2024-02-16T08:22:01;38.07;;;22.70;;
20623;SDS011;10471;42.736;23.346;2024-02-16T08:24:31;38.63;;;21.30;;
20623;SDS011;10471;42.736;23.346;2024-02-16T08:26:58;38.13;;;20.97;;
20623;SDS011;10471;42.736;23.346;2024-02-16T08:29:23;39.23;;;21.63;;
20623;SDS011;10471;42.736;23.346;2024-02-16T08:31:50;32.53;;;20.20;;
20623;SDS011;10471;42.736;23.346;2024-02-16T08:34:16;36.40;;;22.53;;
20623;SDS011;10471;42.736;23.346;2024-02-16T08:36:44;34.00;;;20.07;;
20623;SDS011;10471;42.736;23.346;2024-02-16T08:39:11;37.07;;;20.83;;
20623;SDS011;10471;42.736;23.346;2024-02-16T08:41:37;37.27;;;20.43;;
20623;SDS011;10471;42.736;23.346;2024-02-16T08:44:03;36.43;;;20.07;;
20623;SDS011;10471;42.736;23.346;2024-02-16T08:46:29;36.53;;;20.27;;
20623;SDS011;10471;42.736;23.346;2024-02-16T08:48:54;36.77;;;20.60;;
20623;SDS011;10471;42.736;23.346;2024-02-16T08:51:20;40.53;;;21.00;;
20623;SDS011;10471;42.736;23.346;2024-02-16T08:53:45;33.90;;;20.77;;
20623;SDS011;10471;42.736;23.346;2024-02-16T08:56:11;34.47;;;21.27;;
20623;SDS011;10471;42.736;23.346;2024-02-16T08:58:37;39.00;;;20.27;;
20623;SDS011;10471;42.736;23.346;2024-02-16T09:01:02;35.70;;;20.53;;
20623;SDS011;10471;42.736;23.346;2024-02-16T09:03:28;33.60;;;20.40;;
20623;SDS011;10471;42.736;23.346;2024-02-16T09:05:54;38.23;;;21.50;;
20623;SDS011;10471;42.736;23.346;2024-02-16T09:08:19;32.07;;;21.20;;
20623;SDS011;10471;42.736;23.346;2024-02-16T09:10:44;35.27;;;20.87;;
20623;SDS011;10471;42.736;23.346;2024-02-16T09:13:10;38.33;;;21.07;;
20623;SDS011;10471;42.736;23.346;2024-02-16T09:15:35;33.10;;;19.43;;
20623;SDS011;10471;42.736;23.346;2024-02-16T09:18:01;36.27;;;20.03;;
20623;SDS011;10471;42.736;23.346;2024-02-16T09:20:28;32.80;;;19.10;;
20623;SDS011;10471;42.736;23.346;2024-02-16T09:22:53;32.00;;;20.00;;
20623;SDS011;10471;42.736;23.346;2024-02-16T09:25:19;32.60;;;20.07;;
20623;SDS011;10471;42.736;23.346;2024-02-16T09:27:44;30.27;;;18.47;;
20623;SDS011;10471;42.736;23.346;2024-02-16T09:30:11;30.67;;;17.63;;
20623;SDS011;10471;42.736;23.346;2024-02-16T09:32:40;28.30;;;17.97;;
20623;SDS011;10471;42.736;23.346;2024-02-16T09:35:06;33.00;;;18.37;;
20623;SDS011;10471;42.736;23.346;2024-02-16T09:37:32;28.67;;;17.27;;
20623;SDS011;10471;42.736;23.346;2024-02-16T09:39:57;23.63;;;15.53;;
20623;SDS011;10471;42.736;23.346;2024-02-16T09:42:23;25.87;;;15.70;;
20623;SDS011;10471;42.736;23.346;2024-02-16T09:44:51;23.37;;;15.93;;
20623;SDS011;10471;42.736;23.346;2024-02-16T09:47:17;17.97;;;11.77;;
20623;SDS011;10471;42.736;23.346;2024-02-16T09:49:47;17.87;;;10.60;;
20623;SDS011;10471;42.736;23.346;2024-02-16T09:52:13;17.13;;;11.37;;
20623;SDS011;10471;42.736;23.346;2024-02-16T09:54:38;12.70;;;9.50;;
20623;SDS011;10471;42.736;23.346;2024-02-16T09:57:04;16.20;;;10.83;;
20623;SDS011;10471;42.736;23.346;2024-02-16T09:59:30;19.67;;;13.70;;
20623;SDS011;10471;42.736;23.346;2024-02-16T10:02:02;23.93;;;16.23;;
20623;SDS011;10471;42.736;23.346;2024-02-16T10:04:29;23.70;;;15.87;;
20623;SDS011;10471;42.736;23.346;2024-02-16T10:06:54;15.63;;;11.83;;
20623;SDS011;10471;42.736;23.346;2024-02-16T10:09:23;13.23;;;8.90;;
20623;SDS011;10471;42.736;23.346;2024-02-16T10:11:49;10.10;;;7.07;;
20623;SDS011;10471;42.736;23.346;2024-02-16T10:14:14;10.43;;;7.47;;
20623;SDS011;10471;42.736;23.346;2024-02-16T10:16:40;10.30;;;6.83;;
20623;SDS011;10471;42.736;23.346;2024-02-16T10:19:06;9.43;;;7.33;;
20623;SDS011;10471;42.736;23.346;2024-02-16T10:21:32;8.80;;;6.20;;
20623;SDS011;10471;42.736;23.346;2024-02-16T10:24:02;10.53;;;7.90;;
20623;SDS011;10471;42.736;23.346;2024-02-16T10:26:37;14.47;;;8.83;;
20623;SDS011;10471;42.736;23.346;2024-02-16T10:29:04;10.53;;;7.43;;
20623;SDS011;10471;42.736;23.346;2024-02-16T10:31:42;6.50;;;4.73;;
20623;SDS011;10471;42.736;23.346;2024-02-16T10:34:08;5.33;;;4.83;;
20623;SDS011;10471;42.736;23.346;2024-02-16T10:36:38;6.90;;;5.03;;
20623;SDS011;10471;42.736;23.346;2024-02-16T10:39:06;7.27;;;5.40;;
20623;SDS011;10471;42.736;23.346;2024-02-16T10:41:39;8.13;;;6.00;;
20623;SDS011;10471;42.736;23.346;2024-02-16T10:44:06;11.03;;;7.00;;
20623;SDS011;10471;42.736;23.346;2024-02-16T10:46:32;9.53;;;5.70;;
20623;SDS011;10471;42.736;23.346;2024-02-16T10:48:58;8.20;;;5.80;;
20623;SDS011;10471;42.736;23.346;2024-02-16T10:51:31;8.27;;;5.47;;
20623;SDS011;10471;42.736;23.346;2024-02-16T10:53:56;7.43;;;6.03;;
20623;SDS011;10471;42.736;23.346;2024-02-16T10:56:43;7.13;;;5.27;;
20623;SDS011;10471;42.736;23.346;2024-02-16T10:59:09;8.73;;;5.27;;
20623;SDS011;10471;42.736;23.346;2024-02-16T11:01:41;10.17;;;5.07;;
20623;SDS011;10471;42.736;23.346;2024-02-16T11:04:08;7.63;;;5.93;;
20623;SDS011;10471;42.736;23.346;2024-02-16T11:06:45;8.10;;;5.13;;
20623;SDS011;10471;42.736;23.346;2024-02-16T11:09:22;7.33;;;5.27;;
20623;SDS011;10471;42.736;23.346;2024-02-16T11:12:08;9.97;;;5.10;;
20623;SDS011;10471;42.736;23.346;2024-02-16T11:17:20;6.73;;;4.90;;
20623;SDS011;10471;42.736;23.346;2024-02-16T11:19:48;7.50;;;5.00;;
20623;SDS011;10471;42.736;23.346;2024-02-16T11:22:15;6.53;;;5.10;;
20623;SDS011;10471;42.736;23.346;2024-02-16T11:24:43;7.73;;;4.97;;
20623;SDS011;10471;42.736;23.346;2024-02-16T11:27:10;6.93;;;5.13;;
20623;SDS011;10471;42.736;23.346;2024-02-16T11:29:37;5.60;;;4.70;;
20623;SDS011;10471;42.736;23.346;2024-02-16T11:32:06;7.83;;;5.40;;
20623;SDS011;10471;42.736;23.346;2024-02-16T11:34:32;9.53;;;5.70;;
20623;SDS011;10471;42.736;23.346;2024-02-16T11:36:59;6.00;;;5.13;;
20623;SDS011;10471;42.736;23.346;2024-02-16T11:39:28;8.07;;;5.67;;
20623;SDS011;10471;42.736;23.346;2024-02-16T11:42:04;7.60;;;5.47;;
20623;SDS011;10471;42.736;23.346;2024-02-16T11:44:36;6.70;;;5.13;;
20623;SDS011;10471;42.736;23.346;2024-02-16T11:47:05;6.50;;;5.47;;
20623;SDS011;10471;42.736;23.346;2024-02-16T11:49:33;5.63;;;5.07;;
20623;SDS011;10471;42.736;23.346;2024-02-16T11:51:59;6.17;;;4.60;;
20623;SDS011;10471;42.736;23.346;2024-02-16T11:54:25;5.80;;;4.30;;
20623;SDS011;10471;42.736;23.346;2024-02-16T11:56:51;8.80;;;4.63;;
20623;SDS011;10471;42.736;23.346;2024-02-16T11:59:17;7.43;;;4.87;;
20623;SDS011;10471;42.736;23.346;2024-02-16T12:04:28;8.13;;;5.43;;
20623;SDS011;10471;42.736;23.346;2024-02-16T12:06:55;7.03;;;5.70;;
20623;SDS011;10471;42.736;23.346;2024-02-16T12:09:28;8.80;;;5.17;;
20623;SDS011;10471;42.736;23.346;2024-02-16T12:11:54;4.83;;;4.00;;
20623;SDS011;10471;42.736;23.346;2024-02-16T12:14:23;6.00;;;4.20;;
20623;SDS011;10471;42.736;23.346;2024-02-16T12:19:20;5.90;;;4.00;;
20623;SDS011;10471;42.736;23.346;2024-02-16T12:21:53;4.87;;;3.90;;
20623;SDS011;10471;42.736;23.346;2024-02-16T12:24:20;5.67;;;4.60;;
20623;SDS011;10471;42.736;23.346;2024-02-16T12:26:46;6.63;;;4.67;;
20623;SDS011;10471;42.736;23.346;2024-02-16T12:29:12;6.90;;;3.87;;
20623;SDS011;10471;42.736;23.346;2024-02-16T12:31:39;5.30;;;3.97;;
20623;SDS011;10471;42.736;23.346;2024-02-16T12:34:06;5.30;;;4.17;;
20623;SDS011;10471;42.736;23.346;2024-02-16T12:36:32;9.43;;;4.23;;
20623;SDS011;10471;42.736;23.346;2024-02-16T12:39:01;9.40;;;4.40;;
20623;SDS011;10471;42.736;23.346;2024-02-16T12:41:28;5.20;;;4.27;;
20623;SDS011;10471;42.736;23.346;2024-02-16T12:43:57;5.60;;;4.30;;
20623;SDS011;10471;42.736;23.346;2024-02-16T12:46:23;5.33;;;4.17;;
20623;SDS011;10471;42.736;23.346;2024-02-16T12:48:49;4.60;;;3.97;;
20623;SDS011;10471;42.736;23.346;2024-02-16T12:51:14;4.80;;;4.03;;
20623;SDS011;10471;42.736;23.346;2024-02-16T12:53:40;6.17;;;4.20;;
20623;SDS011;10471;42.736;23.346;2024-02-16T12:56:08;5.03;;;4.27;;
20623;SDS011;10471;42.736;23.346;2024-02-16T12:58:37;6.50;;;4.60;;
20623;SDS011;10471;42.736;23.346;2024-02-16T13:01:03;20.07;;;11.90;;
20623;SDS011;10471;42.736;23.346;2024-02-16T13:03:35;5.80;;;4.90;;
20623;SDS011;10471;42.736;23.346;2024-02-16T13:06:02;7.87;;;4.77;;
20623;SDS011;10471;42.736;23.346;2024-02-16T13:08:28;7.77;;;4.90;;
20623;SDS011;10471;42.736;23.346;2024-02-16T13:10:55;7.60;;;4.70;;
20623;SDS011;10471;42.736;23.346;2024-02-16T13:13:23;6.03;;;4.80;;
20623;SDS011;10471;42.736;23.346;2024-02-16T13:15:49;6.80;;;3.97;;
20623;SDS011;10471;42.736;23.346;2024-02-16T13:18:15;10.73;;;4.57;;
20623;SDS011;10471;42.736;23.346;2024-02-16T13:20:41;7.03;;;4.67;;
20623;SDS011;10471;42.736;23.346;2024-02-16T13:23:07;5.67;;;4.90;;
20623;SDS011;10471;42.736;23.346;2024-02-16T13:25:32;5.87;;;4.23;;
20623;SDS011;10471;42.736;23.346;2024-02-16T13:27:58;6.63;;;4.40;;
20623;SDS011;10471;42.736;23.346;2024-02-16T13:30:24;6.10;;;4.37;;
20623;SDS011;10471;42.736;23.346;2024-02-16T13:32:50;7.23;;;3.90;;
20623;SDS011;10471;42.736;23.346;2024-02-16T13:35:15;12.00;;;6.97;;
20623;SDS011;10471;42.736;23.346;2024-02-16T13:37:41;8.47;;;4.40;;
20623;SDS011;10471;42.736;23.346;2024-02-16T13:40:06;6.27;;;4.40;;
20623;SDS011;10471;42.736;23.346;2024-02-16T13:42:36;8.53;;;4.07;;
20623;SDS011;10471;42.736;23.346;2024-02-16T13:45:05;6.23;;;4.03;;
20623;SDS011;10471;42.736;23.346;2024-02-16T13:47:31;6.80;;;4.27;;
20623;SDS011;10471;42.736;23.346;2024-02-16T13:49:56;5.33;;;4.00;;
20623;SDS011;10471;42.736;23.346;2024-02-16T13:52:24;8.00;;;3.70;;
20623;SDS011;10471;42.736;23.346;2024-02-16T13:54:51;4.83;;;3.90;;
20623;SDS011;10471;42.736;23.346;2024-02-16T13:57:17;7.27;;;3.80;;
20623;SDS011;10471;42.736;23.346;2024-02-16T13:59:43;6.10;;;3.70;;
20623;SDS011;10471;42.736;23.346;2024-02-16T14:02:08;4.80;;;3.87;;
20623;SDS011;10471;42.736;23.346;2024-02-16T14:04:35;4.60;;;3.90;;
20623;SDS011;10471;42.736;23.346;2024-02-16T14:07:01;4.80;;;4.30;;
20623;SDS011;10471;42.736;23.346;2024-02-16T14:09:26;4.23;;;3.80;;
20623;SDS011;10471;42.736;23.346;2024-02-16T14:11:52;5.27;;;4.17;;
20623;SDS011;10471;42.736;23.346;2024-02-16T14:14:23;11.67;;;6.80;;
20623;SDS011;10471;42.736;23.346;2024-02-16T14:16:48;7.40;;;4.67;;
20623;SDS011;10471;42.736;23.346;2024-02-16T14:19:14;7.17;;;3.80;;